createdAt,value
2022-09-21T00:00:47.559Z,23.51
2022-09-21T00:01:49.302Z,23.49
2022-09-21T00:02:51.622Z,23.49
2022-09-21T00:03:58.564Z,23.42
2022-09-21T00:05:00.217Z,23.50
2022-09-21T00:06:06.669Z,23.49
2022-09-21T00:07:08.372Z,23.48
2022-09-21T00:08:13.204Z,23.48
2022-09-21T00:09:15.170Z,23.47
2022-09-21T00:10:17.006Z,23.47
2022-09-21T00:11:22.960Z,23.45
2022-09-21T00:12:24.584Z,23.46
2022-09-21T00:13:28.399Z,23.38
2022-09-21T00:14:31.327Z,23.45
2022-09-21T00:15:33.134Z,23.45
2022-09-21T00:16:35.457Z,23.44
2022-09-21T00:17:37.814Z,23.44
2022-09-21T00:18:39.546Z,23.44
2022-09-21T00:19:41.992Z,23.40
2022-09-21T00:20:43.713Z,23.41
2022-09-21T00:21:45.491Z,23.41
2022-09-21T00:22:48.314Z,23.40
2022-09-21T00:23:50.457Z,23.31
2022-09-21T00:24:52.121Z,23.34
2022-09-21T00:26:14.033Z,23.40
2022-09-21T00:27:15.762Z,23.45
2022-09-21T00:28:17.474Z,23.41
2022-09-21T00:29:19.205Z,23.34
2022-09-21T00:30:20.897Z,23.38
2022-09-21T00:31:23.173Z,23.37
2022-09-21T00:32:27.690Z,23.35
2022-09-21T00:33:29.357Z,23.32
2022-09-21T00:34:32.242Z,23.29
2022-09-21T00:35:34.766Z,23.31
2022-09-21T00:36:36.547Z,23.36
2022-09-21T00:37:38.306Z,23.35
2022-09-21T00:38:40.314Z,23.34
2022-09-21T00:39:42.012Z,23.22
2022-09-21T00:40:43.874Z,23.33
2022-09-21T00:41:46.099Z,23.32
2022-09-21T00:42:48.140Z,23.29
2022-09-21T00:44:15.911Z,23.38
2022-09-21T00:45:23.910Z,23.32
2022-09-21T00:46:29.977Z,23.36
2022-09-21T00:47:36.866Z,23.35
2022-09-21T00:48:39.105Z,23.30
2022-09-21T00:49:43.408Z,23.31
2022-09-21T00:50:50.665Z,23.22
2022-09-21T00:51:53.372Z,23.22
2022-09-21T00:52:58.570Z,23.29
2022-09-21T00:54:09.941Z,23.31
2022-09-21T00:55:26.261Z,23.34
2022-09-21T00:56:28.823Z,23.22
2022-09-21T00:57:32.013Z,23.25
2022-09-21T00:58:41.061Z,23.28
2022-09-21T00:59:45.097Z,23.29
2022-09-21T01:00:47.016Z,23.28
2022-09-21T01:01:49.213Z,23.26
2022-09-21T01:02:51.475Z,23.25
2022-09-21T01:03:53.833Z,23.24
2022-09-21T01:04:56.633Z,23.24
2022-09-21T01:05:58.422Z,23.24
2022-09-21T01:07:05.684Z,23.13
2022-09-21T01:08:10.170Z,23.23
2022-09-21T01:09:11.890Z,23.24
2022-09-21T01:10:19.416Z,23.22
2022-09-21T01:11:43.895Z,23.26
2022-09-21T01:13:26.796Z,23.32
2022-09-21T01:14:47.373Z,23.32
2022-09-21T01:16:04.506Z,23.32
2022-09-21T01:17:22.061Z,23.32
2022-09-21T01:18:37.580Z,23.29
2022-09-21T01:20:03.329Z,23.27
2022-09-21T01:21:14.212Z,23.29
2022-09-21T01:23:00.524Z,23.32
2022-09-21T01:24:16.429Z,23.31
2022-09-21T01:25:32.272Z,23.29
2022-09-21T01:27:00.479Z,23.30
2022-09-21T01:28:21.556Z,23.31
2022-09-21T01:29:32.151Z,23.26
2022-09-21T01:30:37.951Z,23.18
2022-09-21T01:32:05.364Z,23.14
2022-09-21T01:33:15.943Z,23.21
2022-09-21T01:34:33.575Z,23.10
2022-09-21T01:35:40.666Z,23.18
2022-09-21T01:36:44.848Z,23.17
2022-09-21T01:38:00.437Z,23.17
2022-09-21T01:39:14.460Z,23.16
2022-09-21T01:40:58.436Z,23.22
2022-09-21T01:42:01.606Z,23.24
2022-09-21T01:43:07.123Z,23.17
2022-09-21T01:44:20.014Z,23.16
2022-09-21T01:45:35.233Z,23.15
2022-09-21T01:46:38.095Z,23.14
2022-09-21T01:47:42.523Z,23.12
2022-09-21T01:48:49.493Z,23.00
2022-09-21T01:49:55.892Z,23.09
2022-09-21T01:50:59.729Z,23.09
2022-09-21T01:52:11.396Z,23.01
2022-09-21T01:53:32.005Z,23.12
2022-09-21T01:54:41.232Z,23.13
2022-09-21T01:55:51.801Z,23.11
2022-09-21T01:57:01.717Z,23.03
2022-09-21T01:58:18.133Z,23.11
2022-09-21T01:59:32.814Z,23.11
2022-09-21T02:00:36.570Z,23.11
2022-09-21T02:01:44.879Z,23.09
2022-09-21T02:03:12.864Z,23.10
2022-09-21T02:04:15.236Z,23.13
2022-09-21T02:05:20.218Z,23.07
2022-09-21T02:06:22.004Z,23.06
2022-09-21T02:07:25.150Z,23.05
2022-09-21T02:08:32.200Z,22.95
2022-09-21T02:09:37.317Z,23.02
2022-09-21T02:10:52.763Z,23.06
2022-09-21T02:11:54.510Z,22.98
2022-09-21T02:13:01.404Z,23.01
2022-09-21T02:14:03.321Z,23.01
2022-09-21T02:15:05.457Z,22.93
2022-09-21T02:16:07.203Z,23.00
2022-09-21T02:17:42.091Z,23.02
2022-09-21T02:18:50.321Z,23.06
2022-09-21T02:20:27.460Z,23.03
2022-09-21T02:21:50.557Z,23.11
2022-09-21T02:23:06.853Z,23.10
2022-09-21T02:24:21.008Z,23.08
2022-09-21T02:25:40.196Z,23.06
2022-09-21T02:27:07.418Z,23.05
2022-09-21T02:28:23.596Z,23.06
2022-09-21T02:29:33.630Z,23.04
2022-09-21T02:30:37.520Z,23.01
2022-09-21T02:31:49.530Z,22.91
2022-09-21T02:33:13.366Z,22.99
2022-09-21T02:34:43.191Z,23.03
2022-09-21T02:36:28.474Z,23.11
2022-09-21T02:37:44.222Z,23.04
2022-09-21T02:38:54.787Z,22.97
2022-09-21T02:40:04.415Z,23.01
2022-09-21T02:41:17.109Z,22.95
2022-09-21T02:42:26.896Z,22.92
2022-09-21T02:43:37.639Z,22.90
2022-09-21T02:44:52.883Z,22.96
2022-09-21T02:45:59.726Z,22.95
2022-09-21T02:47:09.610Z,22.93
2022-09-21T02:48:19.182Z,22.94
2022-09-21T02:49:32.749Z,22.93
2022-09-21T02:50:47.913Z,22.95
2022-09-21T02:51:52.405Z,22.94
2022-09-21T02:52:54.901Z,22.92
2022-09-21T02:53:58.731Z,22.78
2022-09-21T02:55:01.995Z,22.86
2022-09-21T02:56:07.431Z,22.87
2022-09-21T02:57:12.046Z,22.75
2022-09-21T02:58:16.606Z,22.86
2022-09-21T02:59:18.853Z,22.86
2022-09-21T03:00:20.774Z,22.86
2022-09-21T03:01:24.299Z,22.85
2022-09-21T03:02:37.013Z,22.80
2022-09-21T03:03:39.058Z,22.89
2022-09-21T03:04:43.645Z,22.87
2022-09-21T03:05:48.700Z,22.85
2022-09-21T03:06:50.402Z,22.86
2022-09-21T03:07:52.131Z,22.79
2022-09-21T03:08:53.914Z,22.75
2022-09-21T03:09:55.626Z,22.75
2022-09-21T03:10:57.893Z,22.83
2022-09-21T03:11:59.658Z,22.84
2022-09-21T03:13:01.722Z,22.82
2022-09-21T03:14:08.682Z,22.81
2022-09-21T03:15:10.638Z,22.84
2022-09-21T03:16:13.111Z,22.82
2022-09-21T03:17:14.880Z,22.83
2022-09-21T03:18:16.718Z,22.81
2022-09-21T03:19:18.423Z,22.69
2022-09-21T03:20:20.105Z,22.81
2022-09-21T03:21:22.238Z,22.81
2022-09-21T03:22:24.436Z,22.73
2022-09-21T03:23:26.550Z,22.81
2022-09-21T03:24:46.601Z,22.81
2022-09-21T03:25:48.645Z,22.85
2022-09-21T03:26:50.306Z,22.83
2022-09-21T03:27:55.001Z,22.76
2022-09-21T03:28:56.884Z,22.71
2022-09-21T03:30:01.983Z,22.79
2022-09-21T03:31:04.269Z,22.80
2022-09-21T03:32:06.258Z,22.74
2022-09-21T03:33:08.365Z,22.75
2022-09-21T03:34:11.512Z,22.78
2022-09-21T03:35:13.265Z,22.76
2022-09-21T03:36:14.973Z,22.78
2022-09-21T03:37:17.054Z,22.77
2022-09-21T03:38:21.237Z,22.73
2022-09-21T03:39:23.001Z,22.76
2022-09-21T03:40:27.020Z,22.72
2022-09-21T03:41:28.793Z,22.71
2022-09-21T03:42:30.468Z,22.78
2022-09-21T03:43:33.116Z,22.76
2022-09-21T03:44:34.947Z,22.75
2022-09-21T03:45:38.063Z,22.76
2022-09-21T03:46:39.866Z,22.68
2022-09-21T03:47:42.332Z,22.75
2022-09-21T03:48:47.557Z,22.74
2022-09-21T03:49:49.239Z,22.76
2022-09-21T03:50:51.518Z,22.75
2022-09-21T03:51:53.330Z,22.64
2022-09-21T03:52:58.357Z,22.67
2022-09-21T03:54:00.064Z,22.66
2022-09-21T03:55:05.149Z,22.73
2022-09-21T03:56:06.819Z,22.71
2022-09-21T03:57:09.022Z,22.73
2022-09-21T03:58:10.842Z,22.72
2022-09-21T03:59:14.263Z,22.72
2022-09-21T04:00:16.771Z,22.71
2022-09-21T04:01:18.511Z,22.72
2022-09-21T04:02:20.491Z,22.71
2022-09-21T04:03:22.331Z,22.70
2022-09-21T04:04:24.186Z,22.57
2022-09-21T04:05:26.296Z,22.70
2022-09-21T04:06:28.023Z,22.70
2022-09-21T04:07:37.070Z,22.69
2022-09-21T04:08:39.803Z,22.71
2022-09-21T04:09:42.002Z,22.70
2022-09-21T04:10:44.158Z,22.70
2022-09-21T04:11:46.663Z,22.70
2022-09-21T04:12:48.779Z,22.68
2022-09-21T04:13:58.226Z,22.68
2022-09-21T04:15:00.696Z,22.71
2022-09-21T04:16:02.520Z,22.69
2022-09-21T04:17:04.658Z,22.69
2022-09-21T04:18:06.514Z,22.68
2022-09-21T04:19:08.279Z,22.68
2022-09-21T04:20:10.159Z,22.68
2022-09-21T04:21:11.954Z,22.67
2022-09-21T04:22:14.003Z,22.67
2022-09-21T04:23:15.689Z,22.57
2022-09-21T04:24:19.380Z,22.67
2022-09-21T04:25:21.142Z,22.67
2022-09-21T04:26:27.234Z,22.65
2022-09-21T04:27:28.934Z,22.66
2022-09-21T04:28:32.461Z,22.67
2022-09-21T04:29:34.271Z,22.67
2022-09-21T04:30:37.925Z,22.66
2022-09-21T04:31:40.123Z,22.67
2022-09-21T04:32:42.296Z,22.60
2022-09-21T04:33:44.339Z,22.66
2022-09-21T04:34:46.069Z,22.66
2022-09-21T04:35:48.307Z,22.65
2022-09-21T04:36:49.974Z,22.64
2022-09-21T04:37:55.845Z,22.57
2022-09-21T04:38:58.490Z,22.62
2022-09-21T04:40:00.958Z,22.65
2022-09-21T04:41:03.562Z,22.55
2022-09-21T04:42:05.783Z,22.65
2022-09-21T04:43:07.469Z,22.57
2022-09-21T04:44:09.274Z,22.57
2022-09-21T04:45:11.320Z,22.62
2022-09-21T04:46:15.522Z,22.62
2022-09-21T04:47:17.492Z,22.65
2022-09-21T04:48:19.174Z,22.63
2022-09-21T04:49:21.177Z,22.61
2022-09-21T04:50:22.918Z,22.61
2022-09-21T04:51:37.857Z,22.66
2022-09-21T04:52:40.647Z,22.65
2022-09-21T04:53:44.063Z,22.63
2022-09-21T04:54:46.579Z,22.61
2022-09-21T04:55:48.359Z,22.64
2022-09-21T04:56:50.089Z,22.57
2022-09-21T04:57:51.819Z,22.57
2022-09-21T04:58:53.736Z,22.62
2022-09-21T04:59:55.479Z,22.62
2022-09-21T05:00:57.210Z,22.61
2022-09-21T05:01:58.894Z,22.53
2022-09-21T05:03:00.594Z,22.61
2022-09-21T05:04:03.057Z,22.60
2022-09-21T05:05:05.155Z,22.58
2022-09-21T05:06:08.952Z,22.55
2022-09-21T05:07:10.870Z,22.56
2022-09-21T05:08:12.542Z,22.57
2022-09-21T05:09:32.823Z,22.60
2022-09-21T05:10:35.110Z,22.66
2022-09-21T05:11:36.836Z,22.66
2022-09-21T05:12:41.023Z,22.56
2022-09-21T05:13:43.195Z,22.62
2022-09-21T05:14:45.201Z,22.71
2022-09-21T05:15:46.930Z,22.67
2022-09-21T05:16:49.845Z,22.75
2022-09-21T05:17:51.511Z,22.78
2022-09-21T05:18:55.624Z,22.78
2022-09-21T05:19:57.461Z,22.84
2022-09-21T05:21:01.198Z,22.77
2022-09-21T05:22:02.890Z,22.88
2022-09-21T05:23:04.654Z,22.94
2022-09-21T05:24:06.511Z,22.92
2022-09-21T05:25:08.930Z,23.00
2022-09-21T05:26:10.597Z,22.94
2022-09-21T05:27:13.139Z,23.07
2022-09-21T05:28:15.601Z,23.07
2022-09-21T05:29:17.627Z,23.14
2022-09-21T05:30:19.917Z,23.17
2022-09-21T05:31:38.319Z,23.21
2022-09-21T05:32:49.245Z,23.24
2022-09-21T05:33:55.823Z,23.30
2022-09-21T05:35:11.160Z,23.35
2022-09-21T05:36:27.584Z,23.42
2022-09-21T05:37:47.445Z,23.44
2022-09-21T05:38:49.516Z,23.48
2022-09-21T05:39:51.539Z,23.48
2022-09-21T05:40:54.148Z,23.48
2022-09-21T05:41:56.090Z,23.46
2022-09-21T05:42:58.063Z,23.41
2022-09-21T05:44:00.290Z,23.51
2022-09-21T05:45:02.623Z,23.54
2022-09-21T05:46:35.036Z,23.58
2022-09-21T05:47:45.544Z,23.67
2022-09-21T05:49:03.063Z,23.69
2022-09-21T05:50:23.258Z,23.73
2022-09-21T05:51:58.573Z,23.79
2022-09-21T05:53:00.338Z,23.79
2022-09-21T05:54:09.423Z,23.76
2022-09-21T05:55:35.443Z,23.78
2022-09-21T05:56:37.146Z,23.82
2022-09-21T05:58:05.073Z,23.80
2022-09-21T05:59:32.744Z,23.89
2022-09-21T06:00:52.753Z,23.77
2022-09-21T06:02:20.717Z,23.93
2022-09-21T06:03:32.439Z,23.97
2022-09-21T06:04:34.860Z,23.97
2022-09-21T06:05:36.587Z,23.93
2022-09-21T06:06:38.369Z,23.93
2022-09-21T06:07:41.619Z,23.92
2022-09-21T06:08:43.347Z,23.94
2022-09-21T06:09:45.494Z,23.93
2022-09-21T06:10:47.298Z,23.86
2022-09-21T06:11:49.043Z,23.95
2022-09-21T06:12:50.880Z,23.91
2022-09-21T06:13:52.618Z,23.86
2022-09-21T06:14:56.494Z,23.97
2022-09-21T06:16:01.408Z,23.99
2022-09-21T06:17:03.609Z,24.00
2022-09-21T06:18:09.022Z,24.01
2022-09-21T06:19:13.983Z,23.94
2022-09-21T06:20:15.666Z,24.04
2022-09-21T06:21:17.435Z,23.99
2022-09-21T06:22:19.406Z,24.02
2022-09-21T06:23:21.106Z,23.99
2022-09-21T06:24:24.845Z,24.02
2022-09-21T06:25:27.052Z,24.05
2022-09-21T06:26:28.970Z,23.91
2022-09-21T06:27:31.011Z,24.00
2022-09-21T06:28:32.698Z,24.04
2022-09-21T06:29:34.471Z,23.98
2022-09-21T06:30:37.059Z,23.99
2022-09-21T06:31:39.175Z,24.06
2022-09-21T06:32:40.950Z,24.06
2022-09-21T06:33:47.407Z,24.06
2022-09-21T06:34:50.106Z,23.91
2022-09-21T06:35:58.563Z,24.06
2022-09-21T06:37:00.302Z,24.00
2022-09-21T06:38:06.751Z,24.08
2022-09-21T06:39:08.527Z,24.09
2022-09-21T06:40:10.603Z,24.09
2022-09-21T06:41:15.229Z,24.09
2022-09-21T06:42:19.168Z,24.10
2022-09-21T06:43:22.607Z,24.05
2022-09-21T06:44:24.259Z,24.09
2022-09-21T06:45:26.809Z,24.08
2022-09-21T06:46:28.488Z,24.09
2022-09-21T06:47:30.254Z,24.08
2022-09-21T06:48:34.277Z,24.08
2022-09-21T06:49:40.422Z,24.08
2022-09-21T06:50:44.038Z,24.04
2022-09-21T06:51:48.367Z,24.08
2022-09-21T06:52:50.167Z,24.10
2022-09-21T06:53:56.045Z,24.08
2022-09-21T06:54:57.705Z,24.11
2022-09-21T06:56:07.379Z,24.09
2022-09-21T06:57:09.162Z,24.11
2022-09-21T06:58:11.402Z,24.10
2022-09-21T06:59:13.422Z,24.10
2022-09-21T07:00:15.438Z,24.09
2022-09-21T07:01:17.213Z,24.09
2022-09-21T07:02:19.165Z,24.09
2022-09-21T07:03:20.933Z,24.02
2022-09-21T07:04:25.313Z,24.08
2022-09-21T07:05:27.214Z,24.09
2022-09-21T07:06:29.823Z,24.02
2022-09-21T07:07:31.688Z,24.08
2022-09-21T07:11:16.993Z,24.17
2022-09-21T07:12:19.014Z,24.14
2022-09-21T07:13:20.670Z,24.13
2022-09-21T07:14:22.766Z,24.07
2022-09-21T07:15:25.688Z,24.02
2022-09-21T07:16:28.131Z,24.10
2022-09-21T07:17:34.924Z,24.09
2022-09-21T07:18:43.392Z,24.11
2022-09-21T07:19:46.243Z,24.12
2022-09-21T07:20:49.251Z,24.11
2022-09-21T07:21:53.878Z,24.09
2022-09-21T07:22:55.604Z,24.11
2022-09-21T07:24:00.051Z,24.10
2022-09-21T07:25:01.923Z,24.10
2022-09-21T07:26:09.315Z,24.00
2022-09-21T07:27:11.034Z,24.10
2022-09-21T07:28:13.224Z,24.11
2022-09-21T07:29:15.188Z,23.99
2022-09-21T07:30:16.986Z,24.10
2022-09-21T07:31:19.059Z,24.10
2022-09-21T07:32:21.474Z,24.10
2022-09-21T07:33:23.427Z,24.12
2022-09-21T07:34:25.189Z,24.07
2022-09-21T07:35:26.872Z,24.11
2022-09-21T07:36:28.598Z,24.11
2022-09-21T07:37:31.875Z,24.10
2022-09-21T07:38:39.895Z,24.11
2022-09-21T07:39:41.710Z,24.13
2022-09-21T07:40:43.523Z,24.03
2022-09-21T07:41:45.330Z,24.12
2022-09-21T07:42:47.046Z,24.12
2022-09-21T07:43:48.839Z,24.12
2022-09-21T07:44:51.244Z,24.12
2022-09-21T07:45:57.272Z,24.05
2022-09-21T07:46:59.082Z,24.13
2022-09-21T07:48:05.395Z,24.11
2022-09-21T07:49:07.267Z,24.10
2022-09-21T07:50:09.825Z,24.13
2022-09-21T07:51:13.985Z,24.11
2022-09-21T07:52:15.992Z,24.05
2022-09-21T07:53:18.003Z,24.13
2022-09-21T07:54:19.722Z,24.07
2022-09-21T07:55:21.520Z,24.13
2022-09-21T07:56:23.455Z,24.13
2022-09-21T07:57:43.585Z,24.11
2022-09-21T07:59:03.811Z,24.17
2022-09-21T08:00:06.185Z,24.21
2022-09-21T08:01:13.500Z,24.19
2022-09-21T08:02:15.320Z,24.10
2022-09-21T08:03:17.254Z,24.02
2022-09-21T08:04:19.219Z,24.15
2022-09-21T08:05:20.962Z,24.15
2022-09-21T08:06:23.891Z,24.13
2022-09-21T08:07:27.961Z,24.14
2022-09-21T08:08:29.711Z,24.15
2022-09-21T08:09:31.439Z,24.10
2022-09-21T08:10:33.395Z,24.14
2022-09-21T08:11:36.068Z,24.14
2022-09-21T08:12:37.763Z,24.15
2022-09-21T08:13:39.578Z,24.15
2022-09-21T08:14:41.513Z,24.15
2022-09-21T08:15:49.677Z,24.17
2022-09-21T08:16:52.260Z,24.17
2022-09-21T08:17:54.582Z,24.15
2022-09-21T08:18:56.682Z,24.16
2022-09-21T08:19:58.777Z,24.12
2022-09-21T08:21:01.057Z,24.11
2022-09-21T08:22:02.933Z,24.17
2022-09-21T08:23:05.065Z,24.17
2022-09-21T08:24:07.330Z,24.17
2022-09-21T08:25:11.104Z,24.16
2022-09-21T08:26:18.256Z,24.17
2022-09-21T08:27:20.391Z,24.20
2022-09-21T08:28:22.126Z,24.10
2022-09-21T08:29:25.142Z,24.18
2022-09-21T08:30:28.647Z,24.19
2022-09-21T08:31:31.098Z,24.13
2022-09-21T08:32:50.489Z,24.14
2022-09-21T08:33:54.789Z,24.13
2022-09-21T08:34:56.454Z,24.18
2022-09-21T08:36:00.046Z,24.15
2022-09-21T08:37:01.818Z,24.23
2022-09-21T08:38:03.558Z,24.19
2022-09-21T08:39:09.353Z,24.21
2022-09-21T08:40:12.458Z,24.17
2022-09-21T08:41:17.034Z,24.22
2022-09-21T08:42:50.671Z,24.29
2022-09-21T08:43:58.238Z,24.30
2022-09-21T08:45:10.242Z,24.28
2022-09-21T08:46:19.178Z,24.28
2022-09-21T08:47:43.699Z,24.32
2022-09-21T08:48:54.523Z,24.20
2022-09-21T08:50:00.667Z,24.26
2022-09-21T08:51:06.209Z,24.30
2022-09-21T08:52:16.261Z,24.28
2022-09-21T08:53:50.329Z,24.28
2022-09-21T08:54:57.770Z,24.32
2022-09-21T08:55:59.814Z,24.34
2022-09-21T08:57:05.407Z,24.31
2022-09-21T08:58:33.359Z,24.35
2022-09-21T08:59:35.442Z,24.35
2022-09-21T09:00:40.812Z,24.32
2022-09-21T09:01:45.655Z,24.29
2022-09-21T09:03:08.768Z,24.29
2022-09-21T09:04:42.862Z,24.34
2022-09-21T09:05:44.583Z,24.38
2022-09-21T09:07:28.330Z,24.39
2022-09-21T09:08:48.146Z,24.41
2022-09-21T09:10:11.700Z,24.40
2022-09-21T09:11:32.094Z,24.40
2022-09-21T09:12:53.783Z,24.30
2022-09-21T09:14:27.641Z,24.41
2022-09-21T09:16:17.393Z,24.47
2022-09-21T09:17:59.019Z,24.47
2022-09-21T09:19:21.135Z,24.45
2022-09-21T09:20:30.905Z,24.43
2022-09-21T09:21:38.386Z,24.35
2022-09-21T09:23:25.151Z,24.41
2022-09-21T09:24:38.915Z,24.42
2022-09-21T09:25:42.847Z,24.40
2022-09-21T09:27:00.563Z,24.39
2022-09-21T09:28:13.679Z,24.38
2022-09-21T09:30:06.403Z,24.42
2022-09-21T09:31:21.677Z,24.46
2022-09-21T09:32:32.639Z,24.42
2022-09-21T09:33:53.935Z,24.41
2022-09-21T09:35:19.821Z,24.40
2022-09-21T09:36:46.579Z,24.41
2022-09-21T09:37:48.654Z,24.35
2022-09-21T09:38:57.573Z,24.40
2022-09-21T09:40:01.640Z,24.39
2022-09-21T09:41:09.159Z,24.38
2022-09-21T09:42:13.847Z,24.39
2022-09-21T09:43:37.344Z,24.36
2022-09-21T09:44:44.887Z,24.42
2022-09-21T09:45:56.336Z,24.39
2022-09-21T09:47:12.775Z,24.40
2022-09-21T09:48:17.186Z,24.42
2022-09-21T09:49:38.279Z,24.42
2022-09-21T09:50:41.769Z,24.43
2022-09-21T09:51:43.651Z,24.43
2022-09-21T09:52:46.874Z,24.32
2022-09-21T09:53:49.195Z,24.39
2022-09-21T09:54:50.927Z,24.38
2022-09-21T09:55:55.167Z,24.37
2022-09-21T09:56:56.956Z,24.39
2022-09-21T09:57:59.140Z,24.39
2022-09-21T09:59:08.323Z,24.39
2022-09-21T10:00:14.600Z,24.41
2022-09-21T10:01:39.042Z,24.47
2022-09-21T10:02:55.548Z,24.48
2022-09-21T10:04:20.567Z,24.45
2022-09-21T10:05:31.172Z,24.52
2022-09-21T10:06:33.361Z,24.50
2022-09-21T10:07:43.867Z,24.47
2022-09-21T10:08:48.574Z,24.45
2022-09-21T10:09:50.251Z,24.46
2022-09-21T10:10:52.062Z,24.39
2022-09-21T10:11:58.391Z,24.38
2022-09-21T10:13:21.989Z,24.49
2022-09-21T10:14:26.630Z,24.49
2022-09-21T10:15:29.959Z,24.44
2022-09-21T10:16:32.066Z,24.49
2022-09-21T10:17:33.873Z,24.38
2022-09-21T10:18:45.250Z,24.45
2022-09-21T10:19:47.158Z,24.48
2022-09-21T10:21:08.547Z,24.46
2022-09-21T10:22:18.056Z,24.50
2022-09-21T10:23:20.098Z,24.45
2022-09-21T10:24:23.620Z,24.49
2022-09-21T10:25:25.471Z,24.30
2022-09-21T10:26:41.151Z,24.49
2022-09-21T10:27:46.644Z,24.50
2022-09-21T10:29:23.473Z,24.58
2022-09-21T10:30:31.810Z,24.59
2022-09-21T10:31:33.524Z,24.57
2022-09-21T10:32:36.845Z,24.53
2022-09-21T10:33:49.993Z,24.52
2022-09-21T10:35:16.425Z,24.59
2022-09-21T10:36:35.994Z,24.61
2022-09-21T10:37:42.777Z,24.58
2022-09-21T10:38:45.843Z,24.57
2022-09-21T10:39:47.561Z,24.54
2022-09-21T10:40:50.261Z,24.43
2022-09-21T10:41:59.204Z,24.49
2022-09-21T10:43:00.939Z,24.53
2022-09-21T10:44:02.732Z,24.47
2022-09-21T10:45:16.296Z,24.53
2022-09-21T10:46:18.347Z,24.55
2022-09-21T10:47:42.586Z,24.58
2022-09-21T10:48:47.033Z,24.50
2022-09-21T10:49:55.175Z,24.56
2022-09-21T10:50:57.979Z,24.56
2022-09-21T10:52:02.078Z,24.48
2022-09-21T10:53:09.719Z,24.55
2022-09-21T10:54:11.919Z,24.56
2022-09-21T10:55:19.987Z,24.55
2022-09-21T10:56:21.815Z,24.56
2022-09-21T10:57:26.131Z,24.55
2022-09-21T10:58:28.774Z,24.46
2022-09-21T10:59:36.359Z,24.54
2022-09-21T11:00:48.158Z,24.57
2022-09-21T11:01:52.792Z,24.49
2022-09-21T11:02:56.286Z,24.58
2022-09-21T11:04:08.815Z,24.57
2022-09-21T11:05:28.668Z,24.61
2022-09-21T11:06:34.157Z,24.61
2022-09-21T11:08:02.705Z,24.65
2022-09-21T11:09:09.343Z,24.64
2022-09-21T11:10:14.078Z,24.63
2022-09-21T11:11:46.835Z,24.63
2022-09-21T11:13:05.942Z,24.69
2022-09-21T11:14:14.328Z,24.67
2022-09-21T11:15:23.196Z,24.64
2022-09-21T11:16:32.435Z,24.57
2022-09-21T11:17:55.196Z,24.66
2022-09-21T11:19:18.764Z,24.69
2022-09-21T11:20:30.275Z,24.66
2022-09-21T11:22:12.319Z,24.74
2022-09-21T11:23:21.762Z,24.72
2022-09-21T11:24:36.822Z,24.68
2022-09-21T11:25:55.866Z,24.69
2022-09-21T11:27:07.017Z,24.68
2022-09-21T11:28:17.934Z,24.68
2022-09-21T11:29:31.936Z,24.67
2022-09-21T11:30:48.862Z,24.68
2022-09-21T11:32:37.981Z,24.73
2022-09-21T11:33:49.080Z,24.76
2022-09-21T11:35:00.326Z,24.73
2022-09-21T11:36:17.975Z,24.73
2022-09-21T11:37:25.867Z,24.69
2022-09-21T11:39:06.587Z,24.72
2022-09-21T11:40:45.659Z,24.78
2022-09-21T11:42:11.225Z,24.81
2022-09-21T11:43:40.322Z,24.79
2022-09-21T11:44:54.048Z,24.77
2022-09-21T11:46:07.843Z,24.74
2022-09-21T11:47:21.464Z,24.73
2022-09-21T11:48:44.938Z,24.76
2022-09-21T11:50:29.243Z,24.77
2022-09-21T11:51:42.171Z,24.78
2022-09-21T11:53:22.698Z,24.81
2022-09-21T11:54:53.509Z,24.78
2022-09-21T11:56:16.165Z,24.78
2022-09-21T11:57:35.836Z,24.77
2022-09-21T11:58:45.475Z,24.76
2022-09-21T12:00:11.877Z,24.77
2022-09-21T12:01:31.964Z,24.77
2022-09-21T12:03:07.435Z,24.78
2022-09-21T12:04:34.118Z,24.79
2022-09-21T12:06:03.549Z,24.78
2022-09-21T12:07:24.597Z,24.77
2022-09-21T12:08:53.698Z,24.79
2022-09-21T12:10:22.730Z,24.78
2022-09-21T12:11:38.267Z,24.79
2022-09-21T12:13:09.259Z,24.75
2022-09-21T12:14:25.557Z,24.78
2022-09-21T12:15:51.367Z,24.80
2022-09-21T12:17:16.057Z,24.82
2022-09-21T12:18:43.869Z,24.80
2022-09-21T12:20:22.747Z,24.84
2022-09-21T12:21:30.004Z,24.82
2022-09-21T12:22:36.237Z,24.77
2022-09-21T12:23:43.151Z,24.74
2022-09-21T12:24:50.997Z,24.73
2022-09-21T12:25:57.390Z,24.72
2022-09-21T12:27:07.360Z,24.72
2022-09-21T12:28:20.749Z,24.73
2022-09-21T12:29:47.785Z,24.77
2022-09-21T12:30:56.297Z,24.78
2022-09-21T12:32:28.507Z,24.82
2022-09-21T12:33:40.728Z,24.80
2022-09-21T12:34:52.388Z,24.79
2022-09-21T12:36:08.751Z,24.79
2022-09-21T12:37:19.251Z,24.79
2022-09-21T12:38:42.914Z,24.82
2022-09-21T12:39:51.668Z,24.79
2022-09-21T12:40:56.247Z,24.79
2022-09-21T12:42:06.242Z,24.77
2022-09-21T12:43:30.790Z,24.81
2022-09-21T12:44:52.513Z,24.75
2022-09-21T12:46:02.752Z,24.83
2022-09-21T12:47:10.799Z,24.81
2022-09-21T12:48:31.925Z,24.81
2022-09-21T12:49:33.886Z,24.77
2022-09-21T12:50:43.710Z,24.77
2022-09-21T12:51:59.291Z,24.79
2022-09-21T12:53:01.616Z,24.82
2022-09-21T12:54:24.256Z,24.82
2022-09-21T12:55:31.705Z,24.63
2022-09-21T12:56:53.895Z,24.84
2022-09-21T12:58:15.896Z,24.86
2022-09-21T12:59:44.290Z,24.91
2022-09-21T13:01:09.401Z,24.88
2022-09-21T13:02:20.065Z,24.89
2022-09-21T13:03:37.279Z,24.78
2022-09-21T13:05:07.285Z,24.90
2022-09-21T13:06:31.179Z,24.90
2022-09-21T13:07:48.090Z,24.88
2022-09-21T13:08:50.801Z,24.89
2022-09-21T13:09:53.353Z,24.74
2022-09-21T13:10:55.598Z,24.78
2022-09-21T13:12:07.582Z,24.80
2022-09-21T13:13:30.327Z,24.86
2022-09-21T13:14:36.383Z,24.85
2022-09-21T13:15:51.575Z,24.85
2022-09-21T13:16:57.796Z,24.84
2022-09-21T13:18:05.895Z,24.67
2022-09-21T13:19:13.724Z,24.83
2022-09-21T13:20:22.418Z,24.82
2022-09-21T13:21:36.132Z,24.70
2022-09-21T13:22:38.044Z,24.76
2022-09-21T13:23:42.168Z,24.82
2022-09-21T13:24:45.615Z,24.81
2022-09-21T13:25:50.875Z,24.80
2022-09-21T13:26:56.690Z,24.80
2022-09-21T13:28:09.983Z,24.79
2022-09-21T13:29:17.687Z,24.84
2022-09-21T13:30:38.282Z,24.87
2022-09-21T13:32:00.359Z,24.89
2022-09-21T13:33:03.974Z,24.87
2022-09-21T13:34:21.199Z,24.78
2022-09-21T13:36:03.923Z,24.92
2022-09-21T13:37:22.178Z,24.94
2022-09-21T13:38:42.370Z,24.93
2022-09-21T13:39:45.474Z,24.92
2022-09-21T13:41:01.131Z,24.88
2022-09-21T13:42:30.896Z,24.93
2022-09-21T13:43:50.210Z,24.93
2022-09-21T13:44:52.019Z,24.91
2022-09-21T13:45:56.354Z,24.87
2022-09-21T13:46:58.568Z,24.86
2022-09-21T13:48:19.425Z,24.87
2022-09-21T13:49:47.179Z,24.87
2022-09-21T13:50:49.423Z,24.93
2022-09-21T13:51:52.930Z,24.90
2022-09-21T13:53:04.778Z,24.88
2022-09-21T13:54:06.903Z,24.88
2022-09-21T13:55:32.094Z,24.91
2022-09-21T13:56:33.893Z,24.90
2022-09-21T13:57:40.214Z,24.88
2022-09-21T13:58:46.943Z,24.86
2022-09-21T14:00:20.040Z,24.87
2022-09-21T14:02:58.532Z,24.95
2022-09-21T14:04:04.281Z,24.88
2022-09-21T14:05:18.350Z,24.91
2022-09-21T14:06:32.654Z,24.88
2022-09-21T14:07:35.489Z,24.91
2022-09-21T14:08:50.855Z,24.90
2022-09-21T14:09:59.303Z,24.92
2022-09-21T14:11:15.478Z,24.87
2022-09-21T14:12:25.313Z,24.92
2022-09-21T14:13:33.865Z,24.91
2022-09-21T14:14:38.265Z,24.91
2022-09-21T14:15:40.352Z,24.91
2022-09-21T14:16:45.582Z,24.89
2022-09-21T14:18:16.413Z,24.93
2022-09-21T14:19:18.084Z,24.94
2022-09-21T14:20:39.650Z,24.95
2022-09-21T14:22:07.652Z,25.00
2022-09-21T14:23:12.231Z,24.97
2022-09-21T14:24:23.011Z,24.94
2022-09-21T14:25:28.455Z,24.93
2022-09-21T14:26:35.602Z,24.93
2022-09-21T14:27:45.831Z,24.93
2022-09-21T14:28:52.247Z,24.92
2022-09-21T14:30:00.503Z,24.92
2022-09-21T14:31:17.661Z,24.91
2022-09-21T14:32:23.721Z,24.95
2022-09-21T14:33:30.583Z,24.95
2022-09-21T14:34:36.982Z,24.93
2022-09-21T14:35:43.677Z,24.93
2022-09-21T14:36:50.136Z,24.93
2022-09-21T14:38:00.033Z,24.93
2022-09-21T14:39:04.391Z,24.94
2022-09-21T14:40:39.180Z,25.01
2022-09-21T14:41:43.438Z,25.00
2022-09-21T14:42:46.211Z,24.97
2022-09-21T14:43:54.357Z,24.93
2022-09-21T14:45:02.467Z,24.94
2022-09-21T14:46:16.700Z,24.95
2022-09-21T14:47:44.438Z,25.00
2022-09-21T14:49:07.583Z,25.00
2022-09-21T14:50:28.969Z,25.01
2022-09-21T14:51:55.836Z,25.03
2022-09-21T14:53:29.380Z,25.05